Time;durP1;ratioP1;P1;durP2;ratioP2;P2;SDS_P1;SDS_P2;PMS_P1;PMS_P2;Temp;Humidity;BMP_temperature;BMP_pressure;BME280_temperature;BME280_humidity;BME280_pressure;Samples;Min_cycle;Max_cycle;Signal;HPM_P1;HPM_P2
2021/12/29 00:00:33;;;;;;;1999.90;999.90;;;9.30;99.90;;;;;;5009980;28;20207;-77
2021/12/29 00:03:00;;;;;;;1999.90;999.90;;;9.30;99.90;;;;;;5010061;28;20426;-77
2021/12/29 00:05:27;;;;;;;1999.90;999.90;;;9.40;99.90;;;;;;5009727;28;20166;-78
2021/12/29 00:07:52;;;;;;;1999.90;999.90;;;9.40;99.90;;;;;;5009937;28;20493;-78
2021/12/29 00:10:19;;;;;;;1999.90;999.90;;;9.30;99.90;;;;;;5009954;28;20444;-78
2021/12/29 00:12:49;;;;;;;1999.90;999.90;;;9.30;99.90;;;;;;5009185;28;20162;-78
2021/12/29 00:15:16;;;;;;;1999.90;999.90;;;9.40;99.90;;;;;;5009689;28;20401;-77
2021/12/29 00:17:44;;;;;;;1999.90;999.90;;;9.40;99.90;;;;;;5009856;28;20437;-79
2021/12/29 00:20:15;;;;;;;1999.90;999.90;;;9.40;99.90;;;;;;5009733;28;20428;-78
2021/12/29 00:22:41;;;;;;;1999.90;999.90;;;9.40;99.90;;;;;;5009687;28;20491;-78
2021/12/29 00:25:08;;;;;;;1999.90;999.90;;;9.40;99.90;;;;;;5009517;28;20421;-79
2021/12/29 00:27:33;;;;;;;1999.90;999.90;;;9.40;99.90;;;;;;5009569;28;20444;-78
2021/12/29 00:29:59;;;;;;;1999.90;999.90;;;9.40;99.90;;;;;;5009556;28;20414;-78
2021/12/29 00:32:25;;;;;;;1999.90;999.90;;;9.40;99.90;;;;;;5009656;28;20662;-78
2021/12/29 00:34:50;;;;;;;1999.90;999.90;;;9.40;99.90;;;;;;5009328;28;20178;-79
2021/12/29 00:37:16;;;;;;;1999.90;999.90;;;9.40;99.90;;;;;;5009604;28;20688;-78
2021/12/29 00:39:41;;;;;;;1999.90;999.90;;;9.40;99.90;;;;;;5009538;28;20639;-78
2021/12/29 00:42:07;;;;;;;1999.90;999.90;;;9.50;99.90;;;;;;5009435;28;20194;-78
2021/12/29 00:44:34;;;;;;;1999.90;999.90;;;9.50;99.90;;;;;;5009095;28;20224;-78
2021/12/29 00:47:00;;;;;;;1999.90;999.90;;;9.40;99.90;;;;;;5009449;28;20549;-78
2021/12/29 00:49:33;;;;;;;1999.90;999.90;;;9.50;99.90;;;;;;5014228;28;20404;-78
2021/12/29 00:52:00;;;;;;;1999.90;999.90;;;9.40;99.90;;;;;;5018559;28;20418;-78
2021/12/29 00:54:26;;;;;;;1999.90;999.90;;;9.50;99.90;;;;;;5018136;28;20406;-79
2021/12/29 00:56:52;;;;;;;1999.90;999.90;;;9.50;99.90;;;;;;5017238;28;20497;-78
2021/12/29 00:59:19;;;;;;;1999.90;999.90;;;9.50;99.90;;;;;;5020097;28;20822;-78
2021/12/29 01:01:46;;;;;;;1999.90;999.90;;;9.50;99.90;;;;;;5019248;28;20436;-78
2021/12/29 01:04:11;;;;;;;1999.90;999.90;;;9.50;99.90;;;;;;5020820;28;20400;-78
2021/12/29 01:06:37;;;;;;;1999.90;999.90;;;9.50;99.90;;;;;;5020789;28;20963;-78
2021/12/29 01:09:04;;;;;;;1999.90;999.90;;;9.50;99.90;;;;;;5014750;28;20216;-77
2021/12/29 01:11:29;;;;;;;1999.90;999.90;;;9.50;99.90;;;;;;5010745;28;20556;-78
2021/12/29 01:13:55;;;;;;;1999.90;999.90;;;9.50;99.90;;;;;;5010542;28;20405;-76
2021/12/29 01:19:07;;;;;;;1999.90;999.90;;;9.50;99.90;;;;;;5011080;28;20170;-78
2021/12/29 01:21:34;;;;;;;1999.90;999.90;;;9.50;99.90;;;;;;5010858;28;20523;-78
2021/12/29 01:24:01;;;;;;;1999.90;999.90;;;9.60;99.90;;;;;;5011929;28;20421;-77
2021/12/29 01:26:27;;;;;;;1999.90;999.90;;;9.60;99.90;;;;;;5014144;28;20870;-78
2021/12/29 01:28:53;;;;;;;1999.90;999.90;;;9.50;99.90;;;;;;5013191;28;20549;-77
2021/12/29 01:31:18;;;;;;;1999.90;999.90;;;9.60;99.90;;;;;;5014444;28;20191;-78
2021/12/29 01:33:44;;;;;;;1999.90;999.90;;;9.50;99.90;;;;;;5014969;28;20270;-78
2021/12/29 01:36:09;;;;;;;1999.90;999.90;;;9.50;99.90;;;;;;5014418;28;20163;-77
2021/12/29 01:38:35;;;;;;;1999.90;999.90;;;9.50;99.90;;;;;;5015065;28;20561;-79
2021/12/29 01:41:02;;;;;;;1999.90;999.90;;;9.50;99.90;;;;;;5015273;28;20190;-79
2021/12/29 01:43:28;;;;;;;1999.90;999.90;;;9.60;99.90;;;;;;5015843;28;20168;-78
2021/12/29 01:45:53;;;;;;;1999.90;999.90;;;9.60;99.90;;;;;;5015599;28;20406;-79
2021/12/29 01:48:19;;;;;;;1999.90;999.90;;;9.60;99.90;;;;;;5016125;28;20676;-78
2021/12/29 01:50:50;;;;;;;1999.90;999.90;;;9.60;99.90;;;;;;5016515;28;20183;-78
2021/12/29 01:53:23;;;;;;;1999.90;999.90;;;9.60;99.90;;;;;;5012120;28;20278;-78
2021/12/29 01:55:50;;;;;;;1999.90;999.90;;;9.50;99.90;;;;;;5011727;28;20488;-78
2021/12/29 01:58:16;;;;;;;1999.90;999.90;;;9.50;99.90;;;;;;5012046;28;20412;-78
2021/12/29 02:00:43;;;;;;;1999.90;999.90;;;9.40;99.90;;;;;;5011843;28;20441;-78
2021/12/29 02:03:09;;;;;;;1999.90;999.90;;;9.40;99.90;;;;;;5011944;28;20410;-78
2021/12/29 02:05:36;;;;;;;1999.90;999.90;;;9.40;99.90;;;;;;5011573;28;20442;-77
2021/12/29 02:08:04;;;;;;;1999.90;999.90;;;9.30;99.90;;;;;;5011839;28;20630;-77
2021/12/29 02:10:32;;;;;;;1999.90;999.90;;;9.30;99.90;;;;;;5011660;28;20506;-77
2021/12/29 02:12:59;;;;;;;1999.90;999.90;;;9.30;99.90;;;;;;5011716;28;20450;-77
2021/12/29 02:15:25;;;;;;;1999.90;999.90;;;9.30;99.90;;;;;;5011391;28;20416;-77
2021/12/29 02:17:50;;;;;;;1999.90;999.90;;;9.30;99.90;;;;;;5011729;28;20414;-77
2021/12/29 02:20:19;;;;;;;1999.90;999.90;;;9.30;99.90;;;;;;5010338;28;20210;-77
2021/12/29 02:22:48;;;;;;;1999.90;999.90;;;9.30;99.90;;;;;;5011443;28;20217;-77
2021/12/29 02:27:43;;;;;;;1999.90;999.90;;;9.30;99.90;;;;;;5011471;28;20882;-77
2021/12/29 02:30:09;;;;;;;1999.90;999.90;;;9.40;99.90;;;;;;5011383;28;20438;-77
2021/12/29 02:32:35;;;;;;;1999.90;999.90;;;9.40;99.90;;;;;;5011524;28;20913;-77
2021/12/29 02:35:00;;;;;;;1999.90;999.90;;;9.30;99.90;;;;;;5010510;28;20409;-77
2021/12/29 02:37:27;;;;;;;1999.90;999.90;;;9.40;99.90;;;;;;5011389;28;20185;-77
2021/12/29 02:39:53;;;;;;;1999.90;999.90;;;9.40;99.90;;;;;;5011275;28;20165;-76
2021/12/29 02:42:24;;;;;;;1999.90;999.90;;;9.30;99.90;;;;;;5011363;28;20420;-77
2021/12/29 02:44:51;;;;;;;1999.90;999.90;;;9.30;99.90;;;;;;5011032;28;20901;-76
2021/12/29 02:47:17;;;;;;;1999.90;999.90;;;9.30;99.90;;;;;;5011151;28;20535;-76
2021/12/29 02:49:45;;;;;;;1999.90;999.90;;;9.30;99.90;;;;;;5011138;28;20473;-76
2021/12/29 02:52:11;;;;;;;1999.90;999.90;;;9.30;99.90;;;;;;5011097;28;20440;-76
2021/12/29 02:54:37;;;;;;;1999.90;999.90;;;9.30;99.90;;;;;;5010817;28;20406;-76
2021/12/29 02:57:03;;;;;;;1999.90;999.90;;;9.20;99.90;;;;;;5011089;28;20429;-76
2021/12/29 02:59:29;;;;;;;1999.90;999.90;;;9.30;99.90;;;;;;5011045;28;20408;-76
2021/12/29 03:01:54;;;;;;;1999.90;999.90;;;9.20;99.90;;;;;;5010920;28;20196;-76
2021/12/29 03:04:20;;;;;;;1999.90;999.90;;;9.20;99.90;;;;;;5010698;28;20230;-75
2021/12/29 03:06:46;;;;;;;1999.90;999.90;;;9.20;99.90;;;;;;5010833;28;20252;-76
2021/12/29 03:09:13;;;;;;;1999.90;999.90;;;9.20;99.90;;;;;;5010923;28;20261;-76
2021/12/29 03:11:40;;;;;;;1999.90;999.90;;;9.20;99.90;;;;;;5010817;28;20194;-76
2021/12/29 03:14:06;;;;;;;1999.90;999.90;;;9.20;99.90;;;;;;5010574;28;20411;-77
2021/12/29 03:16:33;;;;;;;1999.90;999.90;;;9.30;99.90;;;;;;5012662;28;20423;-77
2021/12/29 03:19:02;;;;;;;1999.90;999.90;;;9.20;99.90;;;;;;5019522;28;20447;-77
2021/12/29 03:21:28;;;;;;;1999.90;999.90;;;9.20;99.90;;;;;;5019089;28;20495;-78
2021/12/29 03:23:54;;;;;;;1999.90;999.90;;;9.20;99.90;;;;;;5019501;28;20456;-77
2021/12/29 03:26:19;;;;;;;1999.90;999.90;;;9.10;99.90;;;;;;5018425;28;20453;-78
2021/12/29 03:28:45;;;;;;;1999.90;999.90;;;9.10;99.90;;;;;;5017781;28;20204;-78
2021/12/29 03:31:14;;;;;;;1999.90;999.90;;;9.10;99.90;;;;;;5019666;28;20540;-77
2021/12/29 03:33:41;;;;;;;1999.90;999.90;;;9.10;99.90;;;;;;5020588;28;20165;-78
2021/12/29 03:36:08;;;;;;;1999.90;999.90;;;9.10;99.90;;;;;;5023467;28;20982;-78
2021/12/29 03:38:36;;;;;;;1999.90;999.90;;;9.10;99.90;;;;;;5022681;28;20416;-77
2021/12/29 03:41:05;;;;;;;1999.90;999.90;;;9.10;99.90;;;;;;5023319;28;20427;-77
2021/12/29 03:43:34;;;;;;;1999.90;999.90;;;9.10;99.90;;;;;;5020822;28;20417;-78
2021/12/29 03:46:02;;;;;;;1999.90;999.90;;;9.10;99.90;;;;;;5020005;28;20407;-77
2021/12/29 03:48:28;;;;;;;1999.90;999.90;;;9.10;99.90;;;;;;5019712;28;20455;-77
2021/12/29 03:50:55;;;;;;;1999.90;999.90;;;9.10;99.90;;;;;;5019831;28;20433;-77
2021/12/29 03:53:21;;;;;;;1999.90;999.90;;;9.10;99.90;;;;;;5022531;28;20440;-77
2021/12/29 03:55:51;;;;;;;1999.90;999.90;;;9.10;99.90;;;;;;5022756;28;20408;-78
2021/12/29 03:58:18;;;;;;;1999.90;999.90;;;9.10;99.90;;;;;;5023419;28;20418;-78
2021/12/29 04:00:45;;;;;;;1999.90;999.90;;;9.10;99.90;;;;;;5021731;28;20488;-76
2021/12/29 04:03:11;;;;;;;1999.90;999.90;;;9.10;99.90;;;;;;5023653;28;20417;-78
2021/12/29 04:05:37;;;;;;;1999.90;999.90;;;9.10;99.90;;;;;;5024774;28;20410;-77
2021/12/29 04:08:03;;;;;;;1999.90;999.90;;;9.10;99.90;;;;;;5025195;28;20453;-77
2021/12/29 04:10:30;;;;;;;1999.90;999.90;;;9.10;99.90;;;;;;5025538;28;20428;-77
2021/12/29 04:12:57;;;;;;;1999.90;999.90;;;9.10;99.90;;;;;;5024238;28;20444;-76
2021/12/29 04:15:25;;;;;;;1999.90;999.90;;;9.10;99.90;;;;;;5025767;28;20446;-77
2021/12/29 04:17:57;;;;;;;1999.90;999.90;;;9.10;99.90;;;;;;5025627;28;20406;-77
2021/12/29 04:23:11;;;;;;;1999.90;999.90;;;9.20;99.90;;;;;;5027794;28;20459;-76
2021/12/29 04:25:38;;;;;;;1999.90;999.90;;;9.20;99.90;;;;;;5011868;28;20785;-76
2021/12/29 04:28:13;;;;;;;1999.90;999.90;;;9.30;99.90;;;;;;5009626;28;20972;-76
2021/12/29 04:30:39;;;;;;;1999.90;999.90;;;9.30;99.90;;;;;;5009613;28;20432;-76
2021/12/29 04:33:05;;;;;;;1999.90;999.90;;;9.30;99.90;;;;;;5009565;28;20969;-76
2021/12/29 04:35:31;;;;;;;1999.90;999.90;;;9.30;99.90;;;;;;5009329;28;20483;-76
2021/12/29 04:37:56;;;;;;;1999.90;999.90;;;9.30;99.90;;;;;;5009452;28;20444;-76
2021/12/29 04:40:22;;;;;;;1999.90;999.90;;;9.20;99.90;;;;;;5009397;28;20440;-76
2021/12/29 04:42:48;;;;;;;1999.90;999.90;;;9.30;99.90;;;;;;5010237;28;20466;-77
2021/12/29 04:45:15;;;;;;;1999.90;999.90;;;9.30;99.90;;;;;;5031150;28;20173;-76
2021/12/29 04:47:43;;;;;;;1999.90;999.90;;;9.30;99.90;;;;;;5031297;28;20518;-76
2021/12/29 04:50:23;;;;;;;1999.90;999.90;;;9.30;99.90;;;;;;5027551;28;20441;-77
2021/12/29 04:52:48;;;;;;;1999.90;999.90;;;9.30;99.90;;;;;;5027027;28;20409;-76
2021/12/29 04:55:14;;;;;;;1999.90;999.90;;;9.30;99.90;;;;;;5028615;28;20416;-77
2021/12/29 04:57:40;;;;;;;1999.90;999.90;;;9.30;99.90;;;;;;5028174;28;20392;-77
2021/12/29 05:00:07;;;;;;;1999.90;999.90;;;9.30;99.90;;;;;;5028492;28;20569;-76
2021/12/29 05:02:33;;;;;;;1999.90;999.90;;;9.30;99.90;;;;;;5029696;28;20169;-77
2021/12/29 05:05:07;;;;;;;1999.90;999.90;;;9.30;99.90;;;;;;5028363;28;20458;-77
2021/12/29 05:10:17;;;;;;;1999.90;999.90;;;9.20;99.90;;;;;;5028236;28;20520;-76
2021/12/29 05:12:42;;;;;;;1999.90;999.90;;;9.20;99.90;;;;;;5028442;28;20405;-77
2021/12/29 05:15:08;;;;;;;1999.90;999.90;;;9.20;99.90;;;;;;5027898;28;20165;-77
2021/12/29 05:17:34;;;;;;;1999.90;999.90;;;9.20;99.90;;;;;;5026650;28;20183;-77
2021/12/29 05:20:00;;;;;;;1999.90;999.90;;;9.20;99.90;;;;;;5027598;28;20417;-76
2021/12/29 05:22:25;;;;;;;1999.90;999.90;;;9.20;99.90;;;;;;5027908;28;20241;-76
2021/12/29 05:24:51;;;;;;;1999.90;999.90;;;9.20;99.90;;;;;;5026060;28;20173;-77
2021/12/29 05:27:17;;;;;;;1999.90;999.90;;;9.20;99.90;;;;;;5027477;28;20204;-77
2021/12/29 05:29:42;;;;;;;1999.90;999.90;;;9.20;99.90;;;;;;5024529;28;20248;-76
2021/12/29 05:32:08;;;;;;;1999.90;999.90;;;9.20;99.90;;;;;;5026427;28;20452;-76
2021/12/29 05:34:33;;;;;;;1999.90;999.90;;;9.20;99.90;;;;;;5025621;28;20527;-76
2021/12/29 05:36:59;;;;;;;1999.90;999.90;;;9.20;99.90;;;;;;5024473;28;20209;-77
2021/12/29 05:39:25;;;;;;;1999.90;999.90;;;9.20;99.90;;;;;;5026024;28;20241;-77
2021/12/29 05:41:51;;;;;;;1999.90;999.90;;;9.20;99.90;;;;;;5025669;28;20243;-77
2021/12/29 05:44:17;;;;;;;1999.90;999.90;;;9.20;99.90;;;;;;5025161;28;20757;-76
2021/12/29 05:46:43;;;;;;;1999.90;999.90;;;9.20;99.90;;;;;;5025293;28;20416;-76
2021/12/29 05:49:09;;;;;;;1999.90;999.90;;;9.20;99.90;;;;;;5026246;28;20193;-76
2021/12/29 05:51:35;;;;;;;1999.90;999.90;;;9.20;99.90;;;;;;5025400;28;20428;-77
2021/12/29 05:54:00;;;;;;;1999.90;999.90;;;9.20;99.90;;;;;;5024378;28;20413;-75
2021/12/29 05:56:26;;;;;;;1999.90;999.90;;;9.20;99.90;;;;;;5024556;28;20271;-75
2021/12/29 05:58:52;;;;;;;1999.90;999.90;;;9.30;99.90;;;;;;5024973;28;20183;-76
2021/12/29 06:01:18;;;;;;;1999.90;999.90;;;9.20;99.90;;;;;;5024812;28;20282;-76
2021/12/29 06:03:43;;;;;;;1999.90;999.90;;;9.20;99.90;;;;;;5024599;28;20416;-77
2021/12/29 06:06:09;;;;;;;1999.90;999.90;;;9.20;99.90;;;;;;5026660;28;20169;-76
2021/12/29 06:08:35;;;;;;;1999.90;999.90;;;9.20;99.90;;;;;;5026427;28;20202;-77
2021/12/29 06:11:01;;;;;;;1999.90;999.90;;;9.20;99.90;;;;;;5029615;28;20229;-76
2021/12/29 06:13:27;;;;;;;1999.90;999.90;;;9.30;99.90;;;;;;5028582;28;20421;-75
2021/12/29 06:15:53;;;;;;;1999.90;999.90;;;9.20;99.90;;;;;;5029189;28;20170;-76
2021/12/29 06:18:18;;;;;;;1999.90;999.90;;;9.20;99.90;;;;;;5028674;28;20852;-75
2021/12/29 06:20:44;;;;;;;1999.90;999.90;;;9.20;99.90;;;;;;5028190;28;20212;-77
2021/12/29 06:23:12;;;;;;;1999.90;999.90;;;9.20;99.90;;;;;;5029914;28;20439;-76
2021/12/29 06:25:39;;;;;;;1999.90;999.90;;;9.20;99.90;;;;;;5029052;28;20219;-76
2021/12/29 06:28:05;;;;;;;1999.90;999.90;;;9.20;99.90;;;;;;5030318;28;20485;-76
2021/12/29 06:30:31;;;;;;;1999.90;999.90;;;9.20;99.90;;;;;;5029421;28;20440;-76
2021/12/29 06:32:56;;;;;;;1999.90;999.90;;;9.30;99.90;;;;;;5029433;28;20537;-74
2021/12/29 06:35:22;;;;;;;1999.90;999.90;;;9.30;99.90;;;;;;5028033;28;20485;-76
2021/12/29 06:37:48;;;;;;;1999.90;999.90;;;9.30;99.90;;;;;;5030074;28;20165;-74
2021/12/29 06:40:14;;;;;;;1999.90;999.90;;;9.30;99.90;;;;;;5030683;28;20189;-76
2021/12/29 06:42:40;;;;;;;1999.90;999.90;;;9.30;99.90;;;;;;5029741;28;20173;-73
2021/12/29 06:45:07;;;;;;;1999.90;999.90;;;9.20;99.90;;;;;;5030103;28;20410;-76
2021/12/29 06:47:33;;;;;;;1999.90;999.90;;;9.30;99.90;;;;;;5031767;28;20650;-75
2021/12/29 06:49:59;;;;;;;1999.90;999.90;;;9.30;99.90;;;;;;5031138;28;20416;-76
2021/12/29 06:52:25;;;;;;;1999.90;999.90;;;9.30;99.90;;;;;;5032319;28;20225;-77
2021/12/29 06:54:51;;;;;;;1999.90;999.90;;;9.30;99.90;;;;;;5031543;28;20446;-75
2021/12/29 06:57:17;;;;;;;1999.90;999.90;;;9.30;99.90;;;;;;5031370;28;20475;-76
2021/12/29 06:59:43;;;;;;;1999.90;999.90;;;9.30;99.90;;;;;;5031969;28;20473;-76
2021/12/29 07:02:10;;;;;;;1999.90;999.90;;;9.30;99.90;;;;;;5032030;28;20438;-76
2021/12/29 07:04:36;;;;;;;1999.90;999.90;;;9.40;99.90;;;;;;5033311;28;20168;-75
2021/12/29 07:07:02;;;;;;;1999.90;999.90;;;9.30;99.90;;;;;;5032922;28;20417;-75
2021/12/29 07:09:27;;;;;;;1999.90;999.90;;;9.30;99.90;;;;;;5032422;28;20396;-75
2021/12/29 07:11:53;;;;;;;1999.90;999.90;;;9.30;99.90;;;;;;5033051;28;20585;-76
2021/12/29 07:14:21;;;;;;;1999.90;999.90;;;9.40;99.90;;;;;;5030534;28;20169;-76
2021/12/29 07:16:47;;;;;;;1999.90;999.90;;;9.40;99.90;;;;;;5030748;28;20455;-74
2021/12/29 07:19:13;;;;;;;1999.90;999.90;;;9.50;99.90;;;;;;5030681;28;20438;-76
2021/12/29 07:21:39;;;;;;;1999.90;999.90;;;9.40;99.90;;;;;;5029882;28;20425;-75
2021/12/29 07:24:06;;;;;;;1999.90;999.90;;;9.40;99.90;;;;;;5029817;28;20433;-76
2021/12/29 07:26:32;;;;;;;1999.90;999.90;;;9.40;99.90;;;;;;5027830;28;20163;-76
2021/12/29 07:28:59;;;;;;;1999.90;999.90;;;9.50;99.90;;;;;;5028463;28;20436;-75
2021/12/29 07:31:25;;;;;;;1999.90;999.90;;;9.40;99.90;;;;;;5029478;28;20490;-75
2021/12/29 07:33:51;;;;;;;1999.90;999.90;;;9.40;99.90;;;;;;5029525;28;20400;-75
2021/12/29 07:36:17;;;;;;;1999.90;999.90;;;9.40;99.90;;;;;;5029438;28;20417;-76
2021/12/29 07:38:44;;;;;;;1999.90;999.90;;;9.40;99.90;;;;;;5027556;28;20480;-75
2021/12/29 07:41:10;;;;;;;1999.90;999.90;;;9.40;99.90;;;;;;5028189;28;20437;-76
2021/12/29 07:43:37;;;;;;;1999.90;999.90;;;9.40;99.90;;;;;;5017708;28;20415;-75
2021/12/29 07:46:03;;;;;;;1999.90;999.90;;;9.40;99.90;;;;;;5015733;28;20409;-74
2021/12/29 07:48:30;;;;;;;1999.90;999.90;;;9.40;99.90;;;;;;5018194;28;20467;-75
2021/12/29 07:50:56;;;;;;;1999.90;999.90;;;9.50;99.90;;;;;;5018477;28;20433;-75
2021/12/29 07:53:22;;;;;;;1999.90;999.90;;;9.40;99.90;;;;;;5017990;28;20413;-75
2021/12/29 07:55:48;;;;;;;1999.90;999.90;;;9.40;99.90;;;;;;5018521;28;20412;-75
2021/12/29 07:58:14;;;;;;;1999.90;999.90;;;9.40;99.90;;;;;;5019259;28;20176;-75
2021/12/29 08:00:39;;;;;;;1999.90;999.90;;;9.40;99.90;;;;;;5018269;28;20186;-75
2021/12/29 08:03:05;;;;;;;1999.90;999.90;;;9.40;99.90;;;;;;5018416;28;20407;-75
2021/12/29 08:05:31;;;;;;;1999.90;999.90;;;9.40;99.90;;;;;;5018674;28;20186;-75
2021/12/29 08:07:56;;;;;;;1999.90;999.90;;;9.40;99.90;;;;;;5020336;28;20223;-75
2021/12/29 08:10:22;;;;;;;1999.90;999.90;;;9.40;99.90;;;;;;5020263;28;20217;-75
2021/12/29 08:12:48;;;;;;;1999.90;999.90;;;9.50;99.90;;;;;;5019865;28;20178;-75
2021/12/29 08:15:14;;;;;;;1999.90;999.90;;;9.50;99.90;;;;;;5010552;28;20207;-76
2021/12/29 08:17:41;;;;;;;1999.90;999.90;;;9.50;99.90;;;;;;5010769;28;20469;-75
2021/12/29 08:20:08;;;;;;;1999.90;999.90;;;9.50;99.90;;;;;;5010743;28;20421;-76
2021/12/29 08:22:33;;;;;;;1999.90;999.90;;;9.50;99.90;;;;;;5010442;28;20429;-76
2021/12/29 08:24:59;;;;;;;1999.90;999.90;;;9.50;99.90;;;;;;5009912;28;20434;-76
2021/12/29 08:27:25;;;;;;;1999.90;999.90;;;9.60;99.90;;;;;;5010247;28;20203;-75
2021/12/29 08:29:50;;;;;;;1999.90;999.90;;;9.60;99.90;;;;;;5010457;28;20169;-75
2021/12/29 08:32:16;;;;;;;1999.90;999.90;;;9.70;99.90;;;;;;5009772;28;20179;-75
2021/12/29 08:34:42;;;;;;;1999.90;999.90;;;9.60;99.90;;;;;;5010194;28;20184;-75
2021/12/29 08:37:08;;;;;;;1999.90;999.90;;;9.70;99.90;;;;;;5010588;28;20164;-75
2021/12/29 08:39:34;;;;;;;1999.90;999.90;;;9.70;99.90;;;;;;5010564;28;20178;-75
2021/12/29 08:41:59;;;;;;;1999.90;999.90;;;9.70;99.90;;;;;;5010526;28;20191;-75
2021/12/29 08:44:25;;;;;;;1999.90;999.90;;;9.70;99.90;;;;;;5010452;28;20194;-75
2021/12/29 08:46:50;;;;;;;1999.90;999.90;;;9.70;99.90;;;;;;5010499;28;20237;-75
2021/12/29 08:49:16;;;;;;;1999.90;999.90;;;9.80;99.90;;;;;;5010677;28;20264;-75
2021/12/29 08:51:42;;;;;;;1999.90;999.90;;;9.80;99.90;;;;;;5010393;28;20208;-75
2021/12/29 08:54:08;;;;;;;1999.90;999.90;;;9.80;99.90;;;;;;5010068;28;20173;-75
2021/12/29 08:56:34;;;;;;;1999.90;999.90;;;9.80;99.90;;;;;;5009571;28;20211;-75
2021/12/29 08:59:00;;;;;;;1999.90;999.90;;;9.90;99.90;;;;;;4990892;28;20407;-75
2021/12/29 09:01:26;;;;;;;1999.90;999.90;;;9.90;99.90;;;;;;4991037;28;20191;-75
2021/12/29 09:03:53;;;;;;;1999.90;999.90;;;9.90;99.90;;;;;;4991465;28;20662;-75
2021/12/29 09:06:20;;;;;;;1999.90;999.90;;;9.80;99.90;;;;;;4990506;28;20407;-75
2021/12/29 09:08:46;;;;;;;1999.90;999.90;;;9.90;99.90;;;;;;4991834;28;20535;-75
2021/12/29 09:11:13;;;;;;;1999.90;999.90;;;9.90;99.90;;;;;;4991239;28;20523;-75
2021/12/29 09:13:39;;;;;;;1999.90;999.90;;;9.90;99.90;;;;;;4991446;28;20494;-75
2021/12/29 09:16:06;;;;;;;1999.90;999.90;;;9.90;99.90;;;;;;4990483;28;20414;-75
2021/12/29 09:18:34;;;;;;;1999.90;999.90;;;10.00;99.90;;;;;;4991419;28;20409;-75
2021/12/29 09:21:06;;;;;;;1999.90;999.90;;;9.90;99.90;;;;;;4991791;28;20827;-75
2021/12/29 09:23:33;;;;;;;1999.90;999.90;;;9.90;99.90;;;;;;4991649;28;20423;-75
2021/12/29 09:25:59;;;;;;;1999.90;999.90;;;9.90;99.90;;;;;;4991414;28;20417;-75
2021/12/29 09:28:25;;;;;;;1999.90;999.90;;;10.00;99.90;;;;;;4991665;28;20489;-75
2021/12/29 09:30:52;;;;;;;1999.90;999.90;;;10.00;99.90;;;;;;4991319;28;20441;-75
2021/12/29 09:33:22;;;;;;;1999.90;999.90;;;9.90;99.90;;;;;;4991387;28;20511;-75
2021/12/29 09:35:51;;;;;;;1999.90;999.90;;;10.00;99.90;;;;;;4991031;28;20414;-75
2021/12/29 09:38:19;;;;;;;1999.90;999.90;;;10.00;99.90;;;;;;4991256;28;20425;-75
2021/12/29 09:40:47;;;;;;;1999.90;999.90;;;10.10;99.90;;;;;;4991010;28;20533;-75
2021/12/29 09:43:13;;;;;;;1999.90;999.90;;;10.00;99.90;;;;;;4990243;28;20417;-74
2021/12/29 09:45:41;;;;;;;1999.90;999.90;;;10.00;99.90;;;;;;4991001;28;20969;-74
2021/12/29 09:48:07;;;;;;;1999.90;999.90;;;10.00;99.90;;;;;;4992636;28;20477;-74
2021/12/29 09:50:34;;;;;;;1999.90;999.90;;;10.00;99.90;;;;;;4993009;28;20845;-75
2021/12/29 09:53:00;;;;;;;1999.90;999.90;;;10.00;99.90;;;;;;4994829;28;20411;-75
2021/12/29 09:55:27;;;;;;;1999.90;999.90;;;10.10;99.90;;;;;;4994200;28;20558;-75
2021/12/29 09:57:57;;;;;;;1999.90;999.90;;;10.20;99.90;;;;;;4994848;28;20792;-75
2021/12/29 10:00:35;;;;;;;1999.90;999.90;;;10.20;99.90;;;;;;4994622;28;20843;-75
2021/12/29 10:03:03;;;;;;;1999.90;999.90;;;10.30;99.90;;;;;;4994605;28;20816;-75
2021/12/29 10:05:30;;;;;;;1999.90;999.90;;;10.30;99.90;;;;;;4993623;28;20499;-75
2021/12/29 10:08:05;;;;;;;1999.90;999.90;;;10.30;99.90;;;;;;4993664;28;20539;-75
2021/12/29 10:10:34;;;;;;;1999.90;999.90;;;10.40;99.90;;;;;;4994589;28;20790;-75
2021/12/29 10:13:00;;;;;;;1999.90;999.90;;;10.50;99.90;;;;;;4993761;28;20422;-75
2021/12/29 10:15:32;;;;;;;1999.90;999.90;;;10.40;99.90;;;;;;4993971;28;20794;-75
2021/12/29 10:18:04;;;;;;;1999.90;999.90;;;10.40;99.90;;;;;;4993261;28;20411;-76
2021/12/29 10:20:30;;;;;;;1999.90;999.90;;;10.30;99.90;;;;;;4993355;28;20431;-72
2021/12/29 10:22:58;;;;;;;1999.90;999.90;;;10.30;99.90;;;;;;4992779;28;21125;-75
2021/12/29 10:25:24;;;;;;;1999.90;999.90;;;10.40;99.90;;;;;;4993216;28;20204;-75
2021/12/29 10:27:51;;;;;;;1999.90;999.90;;;10.50;99.90;;;;;;4992967;28;20446;-75
2021/12/29 10:30:18;;;;;;;1999.90;999.90;;;10.70;99.90;;;;;;4993182;28;21024;-75
2021/12/29 10:32:44;;;;;;;1999.90;999.90;;;10.80;99.90;;;;;;4993117;28;20511;-75
2021/12/29 10:35:20;;;;;;;1999.90;999.90;;;11.00;99.90;;;;;;4992419;28;20494;-76
2021/12/29 10:37:45;;;;;;;1999.90;999.90;;;11.20;99.90;;;;;;4992671;28;20407;-75
2021/12/29 10:40:15;;;;;;;1999.90;999.90;;;11.40;99.90;;;;;;4993227;28;20500;-75
2021/12/29 10:42:56;;;;;;;1999.90;999.90;;;11.50;99.90;;;;;;4998757;28;20185;-72
2021/12/29 10:45:43;;;;;;;1999.90;999.90;;;11.70;99.90;;;;;;5002751;28;20460;-73
2021/12/29 10:48:29;;;;;;;1999.90;999.90;;;11.90;99.90;;;;;;5002494;28;20456;-74
2021/12/29 10:51:03;;;;;;;1999.90;999.90;;;12.00;99.90;;;;;;5001555;28;20452;-76
2021/12/29 10:53:30;;;;;;;1999.90;999.90;;;12.10;99.90;;;;;;5004184;28;20407;-75
2021/12/29 10:55:57;;;;;;;1999.90;999.90;;;12.10;99.90;;;;;;5003277;28;20411;-75
2021/12/29 10:58:27;;;;;;;1999.90;999.90;;;12.10;99.90;;;;;;5002925;28;20416;-75
2021/12/29 11:01:11;;;;;;;1999.90;999.90;;;12.00;99.90;;;;;;5004119;28;20429;-76
2021/12/29 11:03:53;;;;;;;1999.90;999.90;;;12.00;99.90;;;;;;5001084;28;20412;-73
2021/12/29 11:06:23;;;;;;;1999.90;999.90;;;12.00;99.90;;;;;;5001897;28;20408;-73
2021/12/29 11:08:51;;;;;;;1999.90;999.90;;;12.10;99.90;;;;;;4991384;28;20891;-73
2021/12/29 11:11:20;;;;;;;1999.90;999.90;;;12.10;99.90;;;;;;5009818;28;20853;-75
2021/12/29 11:13:46;;;;;;;1999.90;999.90;;;12.10;99.90;;;;;;5008856;28;20407;-70
2021/12/29 11:16:12;;;;;;;1999.90;999.90;;;12.10;99.90;;;;;;4988308;28;20930;-71
2021/12/29 11:18:51;;;;;;;1999.90;999.90;;;12.10;99.90;;;;;;4989580;28;20170;-71
2021/12/29 11:21:30;;;;;;;1999.90;999.90;;;12.20;99.90;;;;;;4990296;28;20213;-73
2021/12/29 11:24:09;;;;;;;1999.90;999.90;;;12.30;99.90;;;;;;4989210;28;20517;-72
2021/12/29 11:26:35;;;;;;;1999.90;999.90;;;12.30;99.90;;;;;;4988532;28;20421;-70
2021/12/29 11:29:13;;;;;;;1999.90;999.90;;;12.30;99.90;;;;;;4989146;28;21228;-71
2021/12/29 11:31:46;;;;;;;1999.90;999.90;;;12.20;99.90;;;;;;4990364;28;20207;-72
2021/12/29 11:34:24;;;;;;;1999.90;999.90;;;12.30;99.90;;;;;;4989648;28;20411;-72
2021/12/29 11:37:06;;;;;;;1999.90;999.90;;;12.20;99.90;;;;;;4989227;28;20407;-72
2021/12/29 11:39:34;;;;;;;1999.90;999.90;;;12.10;99.90;;;;;;4989775;28;20404;-72
2021/12/29 11:42:00;;;;;;;1999.90;999.90;;;12.10;99.90;;;;;;4989743;28;20431;-73
2021/12/29 11:44:26;;;;;;;1999.90;999.90;;;12.00;99.90;;;;;;4989019;28;20405;-72
2021/12/29 11:46:52;;;;;;;1999.90;999.90;;;12.00;99.90;;;;;;4989405;28;20180;-73
2021/12/29 11:49:18;;;;;;;1999.90;999.90;;;11.80;99.90;;;;;;4989987;28;20204;-72
2021/12/29 11:52:14;;;;;;;1999.90;999.90;;;11.80;99.90;;;;;;4989340;28;20901;-74
2021/12/29 11:55:05;;;;;;;1999.90;999.90;;;11.70;99.90;;;;;;5006995;28;20421;-75
2021/12/29 11:57:33;;;;;;;1999.90;999.90;;;11.60;99.90;;;;;;4989474;28;20464;-72
2021/12/29 12:00:14;;;;;;;1999.90;999.90;;;11.50;99.90;;;;;;4989380;28;20476;-72
2021/12/29 12:02:41;;;;;;;1999.90;999.90;;;11.40;99.90;;;;;;4988749;28;20944;-72
2021/12/29 12:05:11;;;;;;;1999.90;999.90;;;11.30;99.90;;;;;;4989585;28;20422;-75
2021/12/29 12:07:38;;;;;;;1999.90;999.90;;;11.30;99.90;;;;;;4988657;28;20551;-75
2021/12/29 12:10:11;;;;;;;1999.90;999.90;;;11.30;99.90;;;;;;4989932;28;20408;-72
2021/12/29 12:12:52;;;;;;;1999.90;999.90;;;11.20;99.90;;;;;;4990149;28;20427;-72
2021/12/29 12:15:29;;;;;;;1999.90;999.90;;;11.10;99.90;;;;;;4989566;28;20404;-75
2021/12/29 12:17:55;;;;;;;1999.90;999.90;;;11.10;99.90;;;;;;4989645;28;21027;-74